Alamance, North Carolina
Current Conditions -  °F | °C
As of 9:54 PM on Thursday 18 Dec 2014 (Local Time) from KBUY Reporting Station
Broken Clouds Broken Clouds  
Wind Chill: 39°   Ceiling: 6000
Heat Index: 39°   Visibility: 10mi
Dew Point: 26°   Wind: 0mph
Humidity: 60%   Direction: NA
Pressure: 30.08"   Gusts: NA
Location:  36.04°N, 79.49°W
Report Text: KBUY 190254Z AUTO 00000KT 10SM BKN060 BKN075 04/M03 A3008 RMK AO2 SLP188 T00391033 58004
Loading
Personal Weather Stations






























Interactive Weather Map New forecast layout! Learn more

10-Day Weather Forecast

Advertisements
Track Severe Weather on mobile